Airport View

Enter AWOS ICAO identifier for current METAR.

ex. KFNL

KSYN 112215Z AUTO 18005KT 10SM SCT120 M15/M20 A3043 RMK AO2 T11481203

11 Dec 2019 22:28

Frequency: 119.35

Phone: 507-664-3806

Other Area AWOS: KLVN - KFBL - KSGS - KOWA

TAF AMD KMSP 112014Z 1120/1224 20004KT P6SM SKC FM112300 14003KT P6SM OVC120 FM120600 10005KT P6SM -SN SCT020 OVC050 FM121100 12007KT 1SM -SN BR SCT008 OVC015 FM121400 09008KT 2SM -SN BR OVC015 FM121600 07005KT 4SM BR OVC020